UAL225 KSAN-KSFO
Flight info
| Callsign | UAL225 |
|---|---|
| Flight time | 1h 6m |
| Altitude | 36000 |
| Route | PADRZ2 IKAYE RIZIN SPLNT STOKD SERFR SERFR4 |
| Aircraft | B737/M-SDE2E3FGHIRWXY/LB1 |
Departure
| Time | 2026-04-24 03:02 |
|---|---|
| Airport | San Diego International Airport (KSAN) |
Arrival
| Time | 2026-04-24 04:09 |
|---|---|
| Airport | San Francisco International Airport (KSFO) |
| Time | Latitude | Longitude | Altitude | Speed | Heading |
|---|---|---|---|---|---|
| 2026-04-24 02:31 | 32.73255 | -117.20066 | 24 ft | 0 kts | 248° |
| 2026-04-24 02:50 | 32.73257 | -117.20060 | 24 ft | 4 kts | 249° |
| 2026-04-24 02:50 | 32.73264 | -117.20031 | 24 ft | 4 kts | 266° |
| 2026-04-24 02:50 | 32.73261 | -117.20003 | 23 ft | 4 kts | 316° |
| 2026-04-24 02:50 | 32.73250 | -117.19997 | 25 ft | 1 kts | 9° |
| 2026-04-24 02:51 | 32.73247 | -117.19998 | 25 ft | 0 kts | 9° |
| 2026-04-24 02:52 | 32.73249 | -117.19998 | 24 ft | 1 kts | 9° |
| 2026-04-24 02:52 | 32.73284 | -117.19994 | 22 ft | 8 kts | 4° |
| 2026-04-24 02:53 | 32.73339 | -117.19987 | 22 ft | 8 kts | 10° |
| 2026-04-24 02:53 | 32.73438 | -117.19963 | 22 ft | 19 kts | 13° |
| 2026-04-24 02:53 | 32.73474 | -117.19852 | 23 ft | 19 kts | 107° |
| 2026-04-24 02:53 | 32.73432 | -117.19702 | 22 ft | 20 kts | 107° |
| 2026-04-24 02:54 | 32.73391 | -117.19532 | 22 ft | 23 kts | 106° |
| 2026-04-24 02:54 | 32.73344 | -117.19341 | 21 ft | 25 kts | 106° |
| 2026-04-24 02:54 | 32.73294 | -117.19136 | 21 ft | 25 kts | 106° |
| 2026-04-24 02:54 | 32.73247 | -117.18939 | 22 ft | 25 kts | 106° |
| 2026-04-24 02:55 | 32.73200 | -117.18752 | 34 ft | 23 kts | 109° |
| 2026-04-24 02:55 | 32.73160 | -117.18578 | 21 ft | 22 kts | 105° |
| 2026-04-24 02:55 | 32.73118 | -117.18404 | 20 ft | 22 kts | 106° |
| 2026-04-24 02:55 | 32.73076 | -117.18234 | 20 ft | 21 kts | 106° |
| 2026-04-24 02:56 | 32.73037 | -117.18070 | 21 ft | 20 kts | 105° |
| 2026-04-24 02:56 | 32.72999 | -117.17911 | 20 ft | 20 kts | 105° |
| 2026-04-24 02:56 | 32.72962 | -117.17756 | 26 ft | 19 kts | 105° |
| 2026-04-24 02:56 | 32.72952 | -117.17700 | 26 ft | 3 kts | 85° |
| 2026-04-24 02:57 | 32.72957 | -117.17676 | 26 ft | 0 kts | 77° |
| 2026-04-24 03:01 | 32.72965 | -117.17644 | 26 ft | 11 kts | 69° |
| 2026-04-24 03:01 | 32.73039 | -117.17659 | 26 ft | 19 kts | 287° |
| 2026-04-24 03:01 | 32.73145 | -117.18096 | 24 ft | 95 kts | 285° |
| 2026-04-24 03:01 | 32.73394 | -117.19117 | 34 ft | 157 kts | 287° |
| 2026-04-24 03:02 | 32.73731 | -117.20416 | 603 ft | 167 kts | 288° |
| 2026-04-24 03:02 | 32.74139 | -117.21766 | 1315 ft | 181 kts | 296° |
| 2026-04-24 03:02 | 32.74827 | -117.22977 | 2137 ft | 186 kts | 306° |
| 2026-04-24 03:02 | 32.75637 | -117.24341 | 2426 ft | 217 kts | 305° |
| 2026-04-24 03:03 | 32.76556 | -117.25922 | 2678 ft | 248 kts | 304° |
| 2026-04-24 03:03 | 32.77551 | -117.27652 | 3443 ft | 257 kts | 304° |
| 2026-04-24 03:03 | 32.78563 | -117.29423 | 4354 ft | 262 kts | 303° |
| 2026-04-24 03:03 | 32.79596 | -117.31236 | 5267 ft | 267 kts | 303° |
| 2026-04-24 03:04 | 32.80680 | -117.33024 | 6302 ft | 267 kts | 307° |
| 2026-04-24 03:04 | 32.81817 | -117.34780 | 7286 ft | 269 kts | 307° |
| 2026-04-24 03:04 | 32.82969 | -117.36545 | 8292 ft | 272 kts | 306° |
| 2026-04-24 03:04 | 32.84131 | -117.38328 | 9346 ft | 274 kts | 306° |
| 2026-04-24 03:05 | 32.85304 | -117.40135 | 10343 ft | 279 kts | 305° |
| 2026-04-24 03:05 | 32.86533 | -117.42038 | 10776 ft | 304 kts | 305° |
| 2026-04-24 03:05 | 32.87867 | -117.44109 | 11283 ft | 322 kts | 305° |
| 2026-04-24 03:05 | 32.89241 | -117.46239 | 12172 ft | 327 kts | 305° |
| 2026-04-24 03:06 | 32.90632 | -117.48398 | 13160 ft | 330 kts | 305° |
| 2026-04-24 03:06 | 32.92035 | -117.50579 | 14079 ft | 334 kts | 305° |
| 2026-04-24 03:06 | 32.93454 | -117.52786 | 14982 ft | 337 kts | 304° |
| 2026-04-24 03:06 | 32.94882 | -117.55011 | 15950 ft | 339 kts | 304° |
| 2026-04-24 03:07 | 32.96319 | -117.57251 | 16915 ft | 342 kts | 304° |
| 2026-04-24 03:07 | 32.97770 | -117.59516 | 17833 ft | 346 kts | 304° |
| 2026-04-24 03:07 | 32.99235 | -117.61804 | 18689 ft | 350 kts | 304° |
| 2026-04-24 03:07 | 33.00717 | -117.64119 | 19538 ft | 352 kts | 304° |
| 2026-04-24 03:08 | 33.02206 | -117.66445 | 20384 ft | 354 kts | 303° |
| 2026-04-24 03:08 | 33.05224 | -117.71165 | 21944 ft | 362 kts | 303° |
| 2026-04-24 03:08 | 33.06820 | -117.73512 | 22709 ft | 369 kts | 310° |
| 2026-04-24 03:09 | 33.08748 | -117.75581 | 23471 ft | 376 kts | 315° |
| 2026-04-24 03:09 | 33.10781 | -117.77571 | 24109 ft | 380 kts | 316° |
| 2026-04-24 03:09 | 33.12832 | -117.79570 | 24732 ft | 383 kts | 315° |
| 2026-04-24 03:09 | 33.14889 | -117.81615 | 25357 ft | 385 kts | 315° |
| 2026-04-24 03:10 | 33.16941 | -117.83691 | 25970 ft | 388 kts | 314° |
| 2026-04-24 03:10 | 33.19001 | -117.85791 | 26574 ft | 391 kts | 314° |
| 2026-04-24 03:10 | 33.21051 | -117.88016 | 26690 ft | 405 kts | 311° |
| 2026-04-24 03:10 | 33.23087 | -117.90411 | 26809 ft | 417 kts | 310° |
| 2026-04-24 03:11 | 33.25155 | -117.92918 | 26909 ft | 429 kts | 310° |
| 2026-04-24 03:11 | 33.27268 | -117.95494 | 27004 ft | 439 kts | 310° |
| 2026-04-24 03:11 | 33.29429 | -117.98120 | 27145 ft | 447 kts | 310° |
| 2026-04-24 03:11 | 33.31627 | -118.00774 | 27355 ft | 451 kts | 310° |
| 2026-04-24 03:12 | 33.33843 | -118.03435 | 27665 ft | 452 kts | 311° |
| 2026-04-24 03:12 | 33.36058 | -118.06087 | 28088 ft | 450 kts | 311° |
| 2026-04-24 03:12 | 33.38264 | -118.08725 | 28580 ft | 447 kts | 311° |
| 2026-04-24 03:12 | 33.40463 | -118.11355 | 29064 ft | 445 kts | 310° |
| 2026-04-24 03:13 | 33.42649 | -118.13972 | 29559 ft | 444 kts | 310° |
| 2026-04-24 03:13 | 33.44826 | -118.16582 | 30055 ft | 443 kts | 310° |
| 2026-04-24 03:13 | 33.46996 | -118.19186 | 30497 ft | 441 kts | 310° |
| 2026-04-24 03:13 | 33.49154 | -118.21778 | 30947 ft | 438 kts | 310° |
| 2026-04-24 03:14 | 33.50578 | -118.23490 | 31244 ft | 437 kts | 310° |
| 2026-04-24 03:14 | 33.52718 | -118.26065 | 31675 ft | 435 kts | 310° |
| 2026-04-24 03:14 | 33.54851 | -118.28634 | 32108 ft | 434 kts | 309° |
| 2026-04-24 03:14 | 33.56972 | -118.31189 | 32536 ft | 433 kts | 309° |
| 2026-04-24 03:15 | 33.59096 | -118.33752 | 32871 ft | 433 kts | 309° |
| 2026-04-24 03:15 | 33.61217 | -118.36311 | 33246 ft | 432 kts | 309° |
| 2026-04-24 03:15 | 33.63322 | -118.38852 | 33697 ft | 428 kts | 309° |
| 2026-04-24 03:15 | 33.65417 | -118.41382 | 34141 ft | 425 kts | 309° |
| 2026-04-24 03:16 | 33.67497 | -118.43898 | 34464 ft | 424 kts | 309° |
| 2026-04-24 03:16 | 33.69574 | -118.46412 | 34769 ft | 423 kts | 309° |
| 2026-04-24 03:16 | 33.71642 | -118.48916 | 35089 ft | 421 kts | 308° |
| 2026-04-24 03:16 | 33.73700 | -118.51412 | 35429 ft | 420 kts | 308° |
| 2026-04-24 03:17 | 33.75758 | -118.53908 | 35639 ft | 421 kts | 308° |
| 2026-04-24 03:17 | 33.77815 | -118.56406 | 35887 ft | 421 kts | 308° |
| 2026-04-24 03:17 | 33.79877 | -118.58913 | 35969 ft | 424 kts | 308° |
| 2026-04-24 03:18 | 33.84025 | -118.63958 | 35976 ft | 422 kts | 308° |
| 2026-04-24 03:18 | 33.88124 | -118.68944 | 35976 ft | 417 kts | 308° |
| 2026-04-24 03:19 | 33.92182 | -118.73892 | 36002 ft | 414 kts | 308° |
| 2026-04-24 03:19 | 33.96223 | -118.78830 | 35993 ft | 414 kts | 308° |
| 2026-04-24 03:20 | 34.00273 | -118.83786 | 35992 ft | 415 kts | 308° |
| 2026-04-24 03:20 | 34.04329 | -118.88755 | 35985 ft | 417 kts | 308° |
| 2026-04-24 03:21 | 34.08403 | -118.93753 | 35987 ft | 418 kts | 308° |
| 2026-04-24 03:21 | 34.12488 | -118.98769 | 35999 ft | 420 kts | 308° |
| 2026-04-24 03:22 | 34.16138 | -119.04169 | 36013 ft | 412 kts | 297° |
| 2026-04-24 03:22 | 34.19104 | -119.10078 | 35982 ft | 411 kts | 296° |
| 2026-04-24 03:23 | 34.22059 | -119.16004 | 35972 ft | 412 kts | 296° |
| 2026-04-24 03:23 | 34.25059 | -119.21900 | 35988 ft | 412 kts | 297° |
| 2026-04-24 03:24 | 34.28081 | -119.27799 | 35970 ft | 413 kts | 297° |
| 2026-04-24 03:24 | 34.31109 | -119.33709 | 35977 ft | 412 kts | 297° |
| 2026-04-24 03:25 | 34.34122 | -119.39604 | 35981 ft | 412 kts | 297° |
| 2026-04-24 03:25 | 34.37131 | -119.45504 | 35988 ft | 413 kts | 297° |
| 2026-04-24 03:26 | 34.40154 | -119.51426 | 35996 ft | 414 kts | 298° |
| 2026-04-24 03:26 | 34.43872 | -119.56835 | 35982 ft | 422 kts | 309° |
| 2026-04-24 03:27 | 34.48023 | -119.61873 | 35999 ft | 423 kts | 309° |
| 2026-04-24 03:27 | 34.52177 | -119.66922 | 35997 ft | 423 kts | 309° |
| 2026-04-24 03:28 | 34.56314 | -119.71994 | 36004 ft | 423 kts | 308° |
| 2026-04-24 03:28 | 34.60449 | -119.77085 | 35990 ft | 423 kts | 308° |
| 2026-04-24 03:29 | 34.64574 | -119.82181 | 36007 ft | 423 kts | 308° |
| 2026-04-24 03:29 | 34.68693 | -119.87279 | 35997 ft | 422 kts | 308° |
| 2026-04-24 03:30 | 34.72808 | -119.92376 | 36008 ft | 422 kts | 308° |
| 2026-04-24 03:30 | 34.76922 | -119.97480 | 36007 ft | 422 kts | 309° |
| 2026-04-24 03:31 | 34.81004 | -120.02554 | 36029 ft | 422 kts | 308° |
| 2026-04-24 03:31 | 34.85110 | -120.07663 | 36025 ft | 422 kts | 308° |
| 2026-04-24 03:32 | 34.89218 | -120.12785 | 36009 ft | 423 kts | 308° |
| 2026-04-24 03:32 | 34.93334 | -120.17915 | 36043 ft | 423 kts | 308° |
| 2026-04-24 03:33 | 34.97453 | -120.23067 | 36031 ft | 425 kts | 308° |
| 2026-04-24 03:33 | 35.01575 | -120.28233 | 36040 ft | 426 kts | 308° |
| 2026-04-24 03:34 | 35.05710 | -120.33418 | 36037 ft | 426 kts | 308° |
| 2026-04-24 03:34 | 35.09877 | -120.38582 | 36034 ft | 429 kts | 310° |
| 2026-04-24 03:35 | 35.14272 | -120.43537 | 36035 ft | 431 kts | 312° |
| 2026-04-24 03:35 | 35.18717 | -120.48445 | 36043 ft | 430 kts | 312° |
| 2026-04-24 03:36 | 35.23129 | -120.53367 | 36025 ft | 429 kts | 311° |
| 2026-04-24 03:36 | 35.27531 | -120.58319 | 36043 ft | 431 kts | 312° |
| 2026-04-24 03:37 | 35.31953 | -120.63305 | 36025 ft | 433 kts | 312° |
| 2026-04-24 03:37 | 35.36377 | -120.68299 | 36035 ft | 432 kts | 312° |
| 2026-04-24 03:38 | 35.40796 | -120.73295 | 36054 ft | 432 kts | 312° |
| 2026-04-24 03:38 | 35.45215 | -120.78299 | 36052 ft | 432 kts | 312° |
| 2026-04-24 03:39 | 35.49709 | -120.83194 | 36056 ft | 434 kts | 316° |
| 2026-04-24 03:39 | 35.54538 | -120.87673 | 36054 ft | 435 kts | 318° |
| 2026-04-24 03:40 | 35.59391 | -120.92116 | 36063 ft | 432 kts | 317° |
| 2026-04-24 03:40 | 35.61751 | -120.94286 | 36032 ft | 415 kts | 317° |
| 2026-04-24 03:40 | 35.64016 | -120.96374 | 36022 ft | 399 kts | 317° |
| 2026-04-24 03:41 | 35.68354 | -121.00406 | 36045 ft | 387 kts | 317° |
| 2026-04-24 03:41 | 35.72644 | -121.04423 | 36054 ft | 388 kts | 317° |
| 2026-04-24 03:42 | 35.76949 | -121.08452 | 36076 ft | 389 kts | 316° |
| 2026-04-24 03:42 | 35.81259 | -121.12487 | 36065 ft | 389 kts | 316° |
| 2026-04-24 03:43 | 35.85576 | -121.16530 | 36058 ft | 390 kts | 316° |
| 2026-04-24 03:43 | 35.89893 | -121.20580 | 36057 ft | 390 kts | 316° |
| 2026-04-24 03:44 | 35.94204 | -121.24630 | 36057 ft | 389 kts | 316° |
| 2026-04-24 03:44 | 35.96367 | -121.26666 | 35641 ft | 392 kts | 316° |
| 2026-04-24 03:44 | 35.98504 | -121.28677 | 35131 ft | 392 kts | 316° |
| 2026-04-24 03:44 | 36.00665 | -121.30712 | 34604 ft | 390 kts | 317° |
| 2026-04-24 03:45 | 36.02830 | -121.32752 | 34048 ft | 391 kts | 317° |
| 2026-04-24 03:45 | 36.04975 | -121.34774 | 33555 ft | 387 kts | 317° |
| 2026-04-24 03:45 | 36.07115 | -121.36774 | 33088 ft | 384 kts | 319° |
| 2026-04-24 03:45 | 36.09314 | -121.38602 | 32823 ft | 378 kts | 321° |
| 2026-04-24 03:46 | 36.11536 | -121.40321 | 32410 ft | 375 kts | 322° |
| 2026-04-24 03:46 | 36.13751 | -121.41999 | 31972 ft | 372 kts | 323° |
| 2026-04-24 03:46 | 36.15948 | -121.43668 | 31570 ft | 369 kts | 322° |
| 2026-04-24 03:46 | 36.18127 | -121.45337 | 31138 ft | 366 kts | 322° |
| 2026-04-24 03:47 | 36.20277 | -121.46997 | 30739 ft | 363 kts | 322° |
| 2026-04-24 03:47 | 36.22410 | -121.48654 | 30340 ft | 361 kts | 322° |
| 2026-04-24 03:47 | 36.24529 | -121.50306 | 29891 ft | 359 kts | 323° |
| 2026-04-24 03:47 | 36.26634 | -121.51949 | 29418 ft | 355 kts | 322° |
| 2026-04-24 03:48 | 36.28705 | -121.53573 | 29009 ft | 351 kts | 323° |
| 2026-04-24 03:48 | 36.30755 | -121.55172 | 28554 ft | 346 kts | 323° |
| 2026-04-24 03:48 | 36.32776 | -121.56755 | 28146 ft | 342 kts | 323° |
| 2026-04-24 03:48 | 36.34781 | -121.58329 | 27704 ft | 339 kts | 323° |
| 2026-04-24 03:49 | 36.36769 | -121.59883 | 27280 ft | 337 kts | 323° |
| 2026-04-24 03:49 | 36.38727 | -121.61417 | 27143 ft | 328 kts | 323° |
| 2026-04-24 03:49 | 36.40699 | -121.62967 | 26421 ft | 340 kts | 323° |
| 2026-04-24 03:49 | 36.42716 | -121.64554 | 25899 ft | 347 kts | 323° |
| 2026-04-24 03:50 | 36.44764 | -121.66164 | 25480 ft | 350 kts | 323° |
| 2026-04-24 03:50 | 36.46817 | -121.67779 | 25024 ft | 349 kts | 323° |
| 2026-04-24 03:50 | 36.48861 | -121.69387 | 24570 ft | 347 kts | 323° |
| 2026-04-24 03:50 | 36.50895 | -121.70989 | 24160 ft | 345 kts | 323° |
| 2026-04-24 03:51 | 36.52911 | -121.72581 | 23746 ft | 343 kts | 323° |
| 2026-04-24 03:51 | 36.54917 | -121.74165 | 23253 ft | 341 kts | 324° |
| 2026-04-24 03:51 | 36.56910 | -121.75741 | 22799 ft | 337 kts | 324° |
| 2026-04-24 03:51 | 36.58862 | -121.77285 | 22501 ft | 330 kts | 324° |
| 2026-04-24 03:52 | 36.60791 | -121.78812 | 22120 ft | 327 kts | 324° |
| 2026-04-24 03:52 | 36.62710 | -121.80334 | 21646 ft | 326 kts | 324° |
| 2026-04-24 03:52 | 36.64612 | -121.81842 | 21232 ft | 324 kts | 324° |
| 2026-04-24 03:52 | 36.66507 | -121.83347 | 20811 ft | 322 kts | 325° |
| 2026-04-24 03:53 | 36.68391 | -121.84842 | 20379 ft | 321 kts | 325° |
| 2026-04-24 03:53 | 36.70273 | -121.86337 | 19966 ft | 320 kts | 325° |
| 2026-04-24 03:53 | 36.72144 | -121.87823 | 19571 ft | 319 kts | 325° |
| 2026-04-24 03:53 | 36.74030 | -121.89266 | 19153 ft | 319 kts | 332° |
| 2026-04-24 03:54 | 36.76156 | -121.90115 | 18749 ft | 324 kts | 345° |
| 2026-04-24 03:54 | 36.78380 | -121.90718 | 18296 ft | 331 kts | 347° |
| 2026-04-24 03:54 | 36.80647 | -121.91304 | 17832 ft | 333 kts | 347° |
| 2026-04-24 03:54 | 36.82908 | -121.91898 | 17376 ft | 331 kts | 347° |
| 2026-04-24 03:55 | 36.85149 | -121.92502 | 16924 ft | 328 kts | 346° |
| 2026-04-24 03:55 | 36.87369 | -121.93112 | 16454 ft | 326 kts | 347° |
| 2026-04-24 03:55 | 36.89567 | -121.93723 | 16035 ft | 322 kts | 347° |
| 2026-04-24 03:55 | 36.91748 | -121.94332 | 15613 ft | 319 kts | 347° |
| 2026-04-24 03:56 | 36.93905 | -121.94936 | 15207 ft | 316 kts | 347° |
| 2026-04-24 03:56 | 36.96033 | -121.95575 | 14790 ft | 314 kts | 345° |
| 2026-04-24 03:56 | 36.98121 | -121.96355 | 14361 ft | 312 kts | 343° |
| 2026-04-24 03:56 | 37.00186 | -121.97179 | 13935 ft | 311 kts | 343° |
| 2026-04-24 03:57 | 37.02239 | -121.98004 | 13466 ft | 309 kts | 343° |
| 2026-04-24 03:57 | 37.03594 | -121.98546 | 13164 ft | 308 kts | 343° |
| 2026-04-24 03:57 | 37.05627 | -121.99355 | 12722 ft | 305 kts | 343° |
| 2026-04-24 03:57 | 37.07647 | -122.00152 | 12291 ft | 303 kts | 343° |
| 2026-04-24 03:58 | 37.09646 | -122.00938 | 11871 ft | 300 kts | 343° |
| 2026-04-24 03:58 | 37.11632 | -122.01717 | 11456 ft | 298 kts | 343° |
| 2026-04-24 03:58 | 37.13606 | -122.02491 | 11049 ft | 296 kts | 343° |
| 2026-04-24 03:58 | 37.15561 | -122.03257 | 10639 ft | 294 kts | 343° |
| 2026-04-24 03:59 | 37.17508 | -122.04020 | 10239 ft | 291 kts | 344° |
| 2026-04-24 03:59 | 37.19433 | -122.04773 | 9897 ft | 286 kts | 343° |
| 2026-04-24 03:59 | 37.21282 | -122.05497 | 9440 ft | 278 kts | 343° |
| 2026-04-24 03:59 | 37.23096 | -122.06209 | 9061 ft | 270 kts | 343° |
| 2026-04-24 04:00 | 37.24881 | -122.06910 | 8646 ft | 268 kts | 343° |
| 2026-04-24 04:00 | 37.26658 | -122.07605 | 8272 ft | 267 kts | 343° |
| 2026-04-24 04:00 | 37.28438 | -122.08303 | 8038 ft | 270 kts | 342° |
| 2026-04-24 04:00 | 37.30225 | -122.09008 | 8004 ft | 266 kts | 342° |
| 2026-04-24 04:01 | 37.31932 | -122.09681 | 7987 ft | 248 kts | 342° |
| 2026-04-24 04:01 | 37.33546 | -122.10317 | 7734 ft | 244 kts | 343° |
| 2026-04-24 04:01 | 37.35228 | -122.10979 | 7019 ft | 261 kts | 343° |
| 2026-04-24 04:01 | 37.36978 | -122.11669 | 6596 ft | 264 kts | 342° |
| 2026-04-24 04:02 | 37.38727 | -122.12326 | 6252 ft | 262 kts | 344° |
| 2026-04-24 04:02 | 37.40484 | -122.12927 | 5879 ft | 261 kts | 345° |
| 2026-04-24 04:02 | 37.42236 | -122.13518 | 5499 ft | 260 kts | 344° |
| 2026-04-24 04:02 | 37.43968 | -122.14103 | 4982 ft | 257 kts | 344° |
| 2026-04-24 04:03 | 37.45686 | -122.14688 | 4535 ft | 252 kts | 343° |
| 2026-04-24 04:03 | 37.47353 | -122.15259 | 4188 ft | 244 kts | 343° |
| 2026-04-24 04:03 | 37.48959 | -122.15810 | 3874 ft | 235 kts | 343° |
| 2026-04-24 04:03 | 37.50511 | -122.16342 | 3588 ft | 227 kts | 344° |
| 2026-04-24 04:04 | 37.52005 | -122.16855 | 3324 ft | 219 kts | 344° |
| 2026-04-24 04:04 | 37.53362 | -122.17600 | 3022 ft | 210 kts | 314° |
| 2026-04-24 04:04 | 37.54081 | -122.19098 | 2844 ft | 194 kts | 294° |
| 2026-04-24 04:04 | 37.54708 | -122.20555 | 2575 ft | 184 kts | 298° |
| 2026-04-24 04:05 | 37.55310 | -122.21914 | 2350 ft | 172 kts | 297° |
| 2026-04-24 04:05 | 37.55860 | -122.23190 | 2136 ft | 160 kts | 296° |
| 2026-04-24 04:05 | 37.56375 | -122.24387 | 1926 ft | 149 kts | 297° |
| 2026-04-24 04:05 | 37.56873 | -122.25538 | 1789 ft | 150 kts | 296° |
| 2026-04-24 04:06 | 37.57359 | -122.26691 | 1599 ft | 148 kts | 296° |
| 2026-04-24 04:06 | 37.57839 | -122.27843 | 1404 ft | 148 kts | 296° |
| 2026-04-24 04:06 | 37.58318 | -122.28992 | 1206 ft | 148 kts | 296° |
| 2026-04-24 04:06 | 37.58780 | -122.30100 | 1005 ft | 137 kts | 296° |
| 2026-04-24 04:07 | 37.59202 | -122.31110 | 868 ft | 122 kts | 296° |
| 2026-04-24 04:07 | 37.59585 | -122.32029 | 676 ft | 113 kts | 295° |
| 2026-04-24 04:07 | 37.59948 | -122.32906 | 571 ft | 115 kts | 294° |
| 2026-04-24 04:07 | 37.60309 | -122.33788 | 414 ft | 113 kts | 295° |
| 2026-04-24 04:08 | 37.60679 | -122.34655 | 274 ft | 112 kts | 294° |
| 2026-04-24 04:08 | 37.61041 | -122.35527 | 125 ft | 113 kts | 293° |
| 2026-04-24 04:08 | 37.61397 | -122.36383 | 22 ft | 103 kts | 294° |
| 2026-04-24 04:08 | 37.61673 | -122.37059 | 21 ft | 66 kts | 298° |
| 2026-04-24 04:09 | 37.61845 | -122.37463 | 17 ft | 46 kts | 297° |
| 2026-04-24 04:09 | 37.61949 | -122.37725 | 20 ft | 29 kts | 297° |
| 2026-04-24 04:09 | 37.61973 | -122.37918 | 22 ft | 22 kts | 244° |
| 2026-04-24 04:09 | 37.61916 | -122.38079 | 21 ft | 20 kts | 283° |
| 2026-04-24 04:10 | 37.61975 | -122.38226 | 23 ft | 19 kts | 299° |
| 2026-04-24 04:10 | 37.62036 | -122.38370 | 22 ft | 18 kts | 298° |
| 2026-04-24 04:10 | 37.62096 | -122.38515 | 18 ft | 18 kts | 297° |
| 2026-04-24 04:11 | 37.62215 | -122.38797 | 15 ft | 18 kts | 299° |
| 2026-04-24 04:11 | 37.62263 | -122.38940 | 14 ft | 17 kts | 264° |
| 2026-04-24 04:11 | 37.62228 | -122.39083 | 15 ft | 17 kts | 244° |
| 2026-04-24 04:11 | 37.62153 | -122.39122 | 15 ft | 5 kts | 180° |
| 2026-04-24 04:12 | 37.62128 | -122.39107 | 14 ft | 5 kts | 130° |
| 2026-04-24 04:12 | 37.62118 | -122.39090 | 15 ft | 1 kts | 124° |
| 2026-04-24 04:12 | 37.62116 | -122.39083 | 15 ft | 0 kts | 120° |